createdAt,value
2023-08-15T00:02:35.847Z,20.61
2023-08-15T00:05:39.326Z,20.60
2023-08-15T00:08:42.585Z,20.62
2023-08-15T00:11:45.624Z,20.48
2023-08-15T00:14:48.850Z,20.47
2023-08-15T00:17:52.067Z,20.53
2023-08-15T00:20:55.301Z,20.54
2023-08-15T00:23:58.406Z,20.36
2023-08-15T00:27:01.507Z,20.35
2023-08-15T00:30:05.907Z,20.28
2023-08-15T00:33:11.327Z,20.28
2023-08-15T00:36:15.168Z,20.13
2023-08-15T00:39:19.529Z,20.16
2023-08-15T00:42:22.662Z,20.16
2023-08-15T00:45:26.484Z,20.16
2023-08-15T00:48:31.328Z,20.21
2023-08-15T00:51:35.068Z,20.17
2023-08-15T00:54:40.405Z,20.22
2023-08-15T00:57:43.519Z,20.25
2023-08-15T01:00:46.917Z,20.24
2023-08-15T01:03:50.563Z,20.22
2023-08-15T01:06:53.870Z,20.22
2023-08-15T01:09:56.810Z,20.20
2023-08-15T01:13:09.187Z,20.23
2023-08-15T01:16:23.198Z,20.19
2023-08-15T01:19:42.452Z,20.17
2023-08-15T01:22:49.385Z,20.21
2023-08-15T01:25:56.693Z,20.12
2023-08-15T01:28:59.666Z,20.18
2023-08-15T01:32:27.676Z,20.12
2023-08-15T01:35:46.829Z,20.05
2023-08-15T01:38:57.394Z,20.05
2023-08-15T01:42:02.768Z,19.99
2023-08-15T01:45:09.092Z,19.82
2023-08-15T01:48:12.030Z,19.83
2023-08-15T01:51:15.278Z,19.80
2023-08-15T01:54:18.629Z,19.81
2023-08-15T01:57:21.988Z,19.77
2023-08-15T02:00:25.449Z,19.72
2023-08-15T02:03:28.625Z,19.62
2023-08-15T02:06:31.988Z,19.70
2023-08-15T02:09:35.152Z,19.68
2023-08-15T02:12:38.297Z,19.65
2023-08-15T02:15:41.637Z,19.68
2023-08-15T02:18:44.680Z,19.62
2023-08-15T02:21:47.879Z,19.67
2023-08-15T02:24:51.106Z,19.63
2023-08-15T02:27:54.372Z,19.58
2023-08-15T02:30:59.324Z,19.52
2023-08-15T02:34:04.194Z,19.56
2023-08-15T02:37:07.288Z,19.57
2023-08-15T02:40:11.271Z,19.54
2023-08-15T02:43:14.587Z,19.43
2023-08-15T02:46:18.692Z,19.47
2023-08-15T02:49:21.967Z,19.41
2023-08-15T02:52:26.097Z,19.41
2023-08-15T02:55:29.202Z,19.36
2023-08-15T02:58:32.601Z,19.30
2023-08-15T03:04:53.191Z,19.18
2023-08-15T03:07:56.574Z,19.04
2023-08-15T03:11:00.274Z,19.07
2023-08-15T03:14:04.437Z,19.08
2023-08-15T03:17:09.502Z,19.12
2023-08-15T03:20:13.299Z,19.08
2023-08-15T03:23:16.505Z,19.08
2023-08-15T03:26:19.663Z,19.14
2023-08-15T03:29:23.009Z,19.08
2023-08-15T03:32:26.464Z,19.09
2023-08-15T03:35:29.592Z,19.12
2023-08-15T03:38:32.942Z,19.15
2023-08-15T03:41:36.385Z,19.14
2023-08-15T03:44:39.399Z,19.13
2023-08-15T03:47:42.431Z,19.14
2023-08-15T03:50:47.061Z,19.09
2023-08-15T03:53:53.154Z,19.08
2023-08-15T03:56:56.753Z,19.08
2023-08-15T04:00:00.186Z,19.02
2023-08-15T04:03:03.451Z,19.01
2023-08-15T04:06:06.897Z,18.98
2023-08-15T04:09:30.504Z,19.04
2023-08-15T04:12:34.998Z,19.01
2023-08-15T04:15:39.148Z,18.99
2023-08-15T04:18:43.761Z,19.01
2023-08-15T04:21:47.205Z,18.86
2023-08-15T04:24:50.456Z,18.92
2023-08-15T04:27:53.582Z,18.94
2023-08-15T04:30:57.462Z,19.07
2023-08-15T04:34:00.969Z,19.18
2023-08-15T04:37:04.096Z,19.27
2023-08-15T04:40:14.113Z,19.31
2023-08-15T04:43:17.651Z,19.42
2023-08-15T04:46:21.985Z,19.53
2023-08-15T04:49:25.062Z,19.64
2023-08-15T04:52:28.178Z,19.78
2023-08-15T04:55:31.445Z,19.95
2023-08-15T04:58:34.752Z,20.09
2023-08-15T05:01:37.783Z,20.25
2023-08-15T05:04:40.878Z,20.41
2023-08-15T05:07:44.329Z,20.59
2023-08-15T05:10:47.536Z,20.72
2023-08-15T05:13:50.723Z,20.85
2023-08-15T05:16:55.234Z,20.96
2023-08-15T05:19:58.708Z,21.11
2023-08-15T05:23:02.137Z,21.29
2023-08-15T05:26:05.705Z,21.39
2023-08-15T05:29:09.249Z,21.48
2023-08-15T05:32:12.916Z,21.58
2023-08-15T05:35:16.036Z,21.69
2023-08-15T05:38:19.058Z,21.74
2023-08-15T05:41:21.954Z,21.89
2023-08-15T05:44:25.000Z,22.03
2023-08-15T05:47:28.422Z,22.15
2023-08-15T05:50:31.813Z,22.35
2023-08-15T05:53:35.245Z,22.54
2023-08-15T05:56:38.644Z,22.64
2023-08-15T05:59:41.697Z,22.70
2023-08-15T06:02:45.807Z,22.81
2023-08-15T06:05:49.693Z,23.02
2023-08-15T06:08:53.078Z,23.25
2023-08-15T06:11:56.352Z,23.39
2023-08-15T06:14:59.910Z,23.42
2023-08-15T06:18:03.471Z,23.52
2023-08-15T06:21:06.982Z,23.46
2023-08-15T06:24:13.495Z,23.50
2023-08-15T06:27:16.980Z,23.62
2023-08-15T06:30:20.389Z,23.68
2023-08-15T06:33:23.505Z,23.81
2023-08-15T06:36:27.300Z,24.00
2023-08-15T06:39:30.455Z,24.16
2023-08-15T06:42:33.718Z,24.13
2023-08-15T06:45:39.530Z,24.30
2023-08-15T06:48:42.848Z,24.38
2023-08-15T06:51:45.963Z,24.50
2023-08-15T06:54:49.400Z,24.61
2023-08-15T06:57:52.909Z,24.79
2023-08-15T07:00:56.497Z,24.76
2023-08-15T07:03:59.827Z,24.87
2023-08-15T07:07:04.224Z,24.99
2023-08-15T07:10:08.044Z,25.17
2023-08-15T07:13:11.220Z,25.31
2023-08-15T07:16:14.312Z,25.41
2023-08-15T07:19:17.323Z,25.54
2023-08-15T07:22:20.783Z,25.55
2023-08-15T07:25:24.262Z,25.53
2023-08-15T07:28:29.460Z,25.75
2023-08-15T07:31:32.797Z,25.86
2023-08-15T07:34:35.932Z,25.97
2023-08-15T07:37:38.854Z,26.07
2023-08-15T07:40:41.907Z,26.09
2023-08-15T07:43:45.018Z,26.04
2023-08-15T07:46:48.217Z,26.10
2023-08-15T07:49:51.433Z,26.12
2023-08-15T07:52:56.378Z,26.13
2023-08-15T07:55:59.688Z,26.34
2023-08-15T07:59:04.520Z,26.37
2023-08-15T08:02:07.910Z,26.42
2023-08-15T08:05:13.046Z,26.58
2023-08-15T08:08:16.202Z,26.65
2023-08-15T08:11:19.535Z,26.64
2023-08-15T08:14:22.810Z,26.70
2023-08-15T08:17:26.337Z,26.80
2023-08-15T08:20:30.684Z,26.99
2023-08-15T08:23:33.883Z,27.05
2023-08-15T08:26:37.339Z,27.03
2023-08-15T08:29:40.688Z,27.13
2023-08-15T08:32:44.684Z,27.37
2023-08-15T08:35:48.238Z,27.40
2023-08-15T08:40:29.845Z,27.52
2023-08-15T08:42:18.671Z,27.68
2023-08-15T08:45:26.858Z,27.72
2023-08-15T08:48:30.644Z,27.80
2023-08-15T08:51:35.586Z,27.75
2023-08-15T08:54:56.643Z,27.80
2023-08-15T08:58:04.039Z,27.78
2023-08-15T09:01:07.564Z,27.86
2023-08-15T09:04:12.047Z,27.91
2023-08-15T09:07:19.181Z,27.90
2023-08-15T09:10:23.586Z,27.98
2023-08-15T09:13:26.654Z,27.99
2023-08-15T09:16:30.378Z,28.09
2023-08-15T09:19:40.676Z,28.11
2023-08-15T09:22:48.400Z,28.19
2023-08-15T09:25:57.153Z,28.22
2023-08-15T09:29:00.595Z,28.28
2023-08-15T09:32:04.370Z,28.40
2023-08-15T09:35:10.717Z,28.51
2023-08-15T09:38:17.585Z,28.55
2023-08-15T09:41:26.806Z,28.60
2023-08-15T09:44:34.510Z,28.67
2023-08-15T09:47:39.575Z,28.67
2023-08-15T09:50:44.957Z,28.80
2023-08-15T09:53:48.705Z,28.81
2023-08-15T09:56:55.128Z,28.83
2023-08-15T10:00:01.044Z,28.97
2023-08-15T10:03:39.498Z,29.08
2023-08-15T10:06:44.748Z,29.15
2023-08-15T10:09:49.931Z,29.22
2023-08-15T10:12:55.582Z,29.40
2023-08-15T10:16:01.309Z,29.48
2023-08-15T10:19:04.702Z,29.49
2023-08-15T10:22:07.799Z,29.57
2023-08-15T10:25:29.239Z,29.76
2023-08-15T10:28:35.461Z,29.79
2023-08-15T10:31:40.745Z,29.89
2023-08-15T10:34:43.866Z,30.00
2023-08-15T10:37:49.481Z,30.14
2023-08-15T10:41:01.344Z,30.34
2023-08-15T10:44:09.414Z,30.49
2023-08-15T10:47:24.944Z,30.42
2023-08-15T10:50:28.182Z,30.45
2023-08-15T10:53:31.504Z,30.64
2023-08-15T10:56:37.432Z,30.73
2023-08-15T10:59:41.048Z,30.96
2023-08-15T11:02:44.075Z,31.15
2023-08-15T11:05:49.936Z,31.43
2023-08-15T11:08:59.097Z,31.67
2023-08-15T11:12:10.055Z,31.68
2023-08-15T11:15:13.337Z,31.65
2023-08-15T11:18:24.722Z,31.78
2023-08-15T11:21:29.535Z,31.95
2023-08-15T11:24:33.873Z,32.03
2023-08-15T11:27:41.444Z,32.04
2023-08-15T11:30:45.119Z,32.32
2023-08-15T11:33:51.656Z,32.41
2023-08-15T11:36:57.083Z,32.52
2023-08-15T11:40:00.588Z,32.55
2023-08-15T11:43:51.954Z,32.55
2023-08-15T11:46:33.538Z,32.65
2023-08-15T11:49:47.514Z,32.83
2023-08-15T11:52:53.585Z,32.73
2023-08-15T11:55:57.158Z,32.79
2023-08-15T11:59:08.004Z,32.61
2023-08-15T12:02:12.511Z,32.67
2023-08-15T12:05:17.770Z,32.57
2023-08-15T12:08:21.171Z,32.63
2023-08-15T12:11:25.377Z,32.65
2023-08-15T12:14:38.723Z,32.57
2023-08-15T12:17:49.499Z,32.61
2023-08-15T12:20:52.845Z,32.83
2023-08-15T12:23:57.317Z,32.89
2023-08-15T12:27:02.917Z,32.68
2023-08-15T12:30:13.626Z,32.93
2023-08-15T12:33:31.265Z,32.60
2023-08-15T12:36:38.592Z,32.79
2023-08-15T12:39:41.944Z,32.78
2023-08-15T12:42:45.301Z,32.96
2023-08-15T12:45:48.767Z,32.74
2023-08-15T12:48:52.156Z,32.95
2023-08-15T12:51:55.321Z,32.89
2023-08-15T12:54:58.395Z,33.04
2023-08-15T12:58:04.122Z,32.96
2023-08-15T13:01:07.642Z,32.96
2023-08-15T13:04:13.570Z,32.84
2023-08-15T13:07:16.826Z,32.85
2023-08-15T13:10:20.054Z,32.75
2023-08-15T13:13:23.763Z,32.55
2023-08-15T13:16:27.087Z,32.57
2023-08-15T13:19:31.114Z,32.57
2023-08-15T13:22:34.580Z,32.51
2023-08-15T13:25:37.896Z,32.42
2023-08-15T13:28:41.122Z,32.40
2023-08-15T13:31:44.597Z,32.38
2023-08-15T13:34:49.309Z,32.41
2023-08-15T13:37:52.554Z,32.38
2023-08-15T13:40:56.110Z,32.17
2023-08-15T13:43:59.266Z,31.83
2023-08-15T13:47:02.596Z,31.76
2023-08-15T13:50:07.579Z,31.78
2023-08-15T13:53:11.481Z,31.62
2023-08-15T13:56:15.788Z,31.68
2023-08-15T13:59:19.305Z,31.62
2023-08-15T14:02:22.506Z,31.65
2023-08-15T14:05:26.474Z,31.71
2023-08-15T14:08:32.978Z,31.66
2023-08-15T14:11:37.146Z,31.62
2023-08-15T14:14:40.411Z,31.53
2023-08-15T14:17:47.439Z,31.47
2023-08-15T14:20:50.464Z,31.32
2023-08-15T14:23:53.433Z,31.30
2023-08-15T14:26:56.913Z,31.31
2023-08-15T14:30:03.018Z,31.33
2023-08-15T14:33:08.298Z,31.30
2023-08-15T14:36:11.545Z,31.39
2023-08-15T14:39:14.631Z,31.39
2023-08-15T14:42:21.369Z,31.30
2023-08-15T14:45:24.800Z,31.20
2023-08-15T14:48:29.549Z,31.15
2023-08-15T14:51:32.905Z,31.15
2023-08-15T14:54:36.444Z,31.19
2023-08-15T14:57:42.484Z,31.08
2023-08-15T15:00:47.969Z,31.00
2023-08-15T15:03:51.151Z,31.05
2023-08-15T15:06:54.707Z,30.99
2023-08-15T15:10:00.407Z,31.06
2023-08-15T15:13:04.490Z,31.05
2023-08-15T15:16:08.053Z,31.06
2023-08-15T15:19:11.314Z,30.92
2023-08-15T15:22:14.510Z,30.80
2023-08-15T15:25:18.050Z,30.92
2023-08-15T15:28:24.316Z,30.86
2023-08-15T15:31:27.421Z,30.74
2023-08-15T15:34:30.727Z,30.70
2023-08-15T15:37:34.253Z,30.60
2023-08-15T15:40:37.950Z,30.61
2023-08-15T15:43:42.270Z,30.58
2023-08-15T15:46:54.638Z,30.54
2023-08-15T15:49:59.110Z,30.48
2023-08-15T15:53:02.474Z,30.49
2023-08-15T15:56:06.021Z,30.46
2023-08-15T15:59:09.188Z,30.41
2023-08-15T16:02:12.546Z,30.36
2023-08-15T16:05:16.260Z,30.27
2023-08-15T16:08:20.057Z,30.23
2023-08-15T16:11:23.171Z,30.15
2023-08-15T16:14:26.639Z,30.10
2023-08-15T16:17:30.314Z,30.02
2023-08-15T16:20:33.761Z,29.89
2023-08-15T16:23:37.194Z,29.83
2023-08-15T16:26:40.439Z,29.84
2023-08-15T16:29:43.516Z,29.75
2023-08-15T16:32:49.284Z,29.64
2023-08-15T16:35:52.720Z,29.59
2023-08-15T16:38:56.015Z,29.57
2023-08-15T16:41:59.083Z,29.47
2023-08-15T16:45:02.317Z,29.53
2023-08-15T16:48:07.652Z,29.51
2023-08-15T16:51:11.245Z,29.58
2023-08-15T16:54:14.419Z,29.47
2023-08-15T16:57:19.248Z,29.37
2023-08-15T17:00:24.637Z,29.19
2023-08-15T17:03:27.911Z,29.04
2023-08-15T17:06:31.355Z,28.94
2023-08-15T17:09:34.736Z,28.85
2023-08-15T17:12:40.992Z,28.74
2023-08-15T17:15:46.533Z,28.67
2023-08-15T17:18:49.988Z,28.54
2023-08-15T17:21:53.036Z,28.52
2023-08-15T17:24:57.001Z,28.48
2023-08-15T17:28:00.005Z,28.41
2023-08-15T17:31:02.963Z,28.32
2023-08-15T17:34:06.411Z,28.20
2023-08-15T17:37:10.747Z,28.17
2023-08-15T17:40:13.658Z,28.07
2023-08-15T17:43:16.622Z,28.02
2023-08-15T17:46:19.687Z,27.98
2023-08-15T17:49:22.938Z,27.87
2023-08-15T17:52:26.237Z,27.79
2023-08-15T17:55:29.234Z,27.72
2023-08-15T17:58:49.272Z,27.67
2023-08-15T18:01:54.726Z,27.57
2023-08-15T18:04:58.480Z,27.51
2023-08-15T18:08:02.286Z,27.41
2023-08-15T18:11:05.724Z,27.36
2023-08-15T18:14:08.986Z,27.30
2023-08-15T18:17:12.304Z,27.28
2023-08-15T18:20:15.690Z,27.25
2023-08-15T18:23:19.107Z,27.22
2023-08-15T18:26:25.044Z,27.20
2023-08-15T18:29:31.306Z,27.09
2023-08-15T18:32:34.723Z,27.04
2023-08-15T18:35:39.239Z,26.98
2023-08-15T18:38:42.666Z,26.89
2023-08-15T18:41:45.672Z,26.85
2023-08-15T18:44:48.849Z,26.81
2023-08-15T18:47:55.199Z,26.77
2023-08-15T18:50:58.436Z,26.73
2023-08-15T18:54:01.653Z,26.68
2023-08-15T18:57:04.732Z,26.64
2023-08-15T19:00:11.932Z,26.55
2023-08-15T19:03:16.235Z,26.43
2023-08-15T19:06:19.492Z,26.35
2023-08-15T19:09:23.941Z,26.29
2023-08-15T19:12:29.920Z,26.21
2023-08-15T19:15:33.348Z,26.17
2023-08-15T19:18:39.369Z,26.11
2023-08-15T19:21:42.760Z,26.00
2023-08-15T19:24:46.553Z,25.94
2023-08-15T19:27:52.368Z,25.93
2023-08-15T19:30:55.547Z,25.83
2023-08-15T19:33:58.980Z,25.80
2023-08-15T19:37:05.228Z,25.77
2023-08-15T19:40:11.833Z,25.73
2023-08-15T19:43:15.265Z,25.65
2023-08-15T19:46:18.598Z,25.65
2023-08-15T19:49:22.095Z,25.68
2023-08-15T19:52:26.039Z,25.60
2023-08-15T19:55:33.184Z,25.52
2023-08-15T19:58:37.637Z,25.51
2023-08-15T20:01:44.031Z,25.46
2023-08-15T20:04:47.702Z,25.44
2023-08-15T20:07:51.036Z,25.39
2023-08-15T20:10:55.724Z,25.27
2023-08-15T20:13:58.980Z,25.17
2023-08-15T20:17:02.367Z,25.13
2023-08-15T20:20:06.890Z,25.12
2023-08-15T20:23:09.938Z,25.03
2023-08-15T20:26:13.116Z,24.93
2023-08-15T20:29:16.084Z,24.92
2023-08-15T20:32:19.338Z,24.85
2023-08-15T20:35:23.337Z,24.90
2023-08-15T20:38:26.686Z,24.96
2023-08-15T20:41:29.832Z,24.92
2023-08-15T20:44:33.344Z,24.89
2023-08-15T20:47:37.924Z,24.86
2023-08-15T20:50:40.985Z,24.79
2023-08-15T20:53:44.057Z,24.72
2023-08-15T20:56:47.318Z,24.64
2023-08-15T20:59:51.210Z,24.58
2023-08-15T21:02:54.307Z,24.49
2023-08-15T21:05:57.432Z,24.44
2023-08-15T21:09:00.779Z,24.41
2023-08-15T21:12:07.373Z,24.42
2023-08-15T21:15:11.031Z,24.44
2023-08-15T21:18:16.800Z,24.42
2023-08-15T21:21:20.171Z,24.50
2023-08-15T21:24:23.558Z,24.45
2023-08-15T21:27:26.604Z,24.32
2023-08-15T21:30:29.768Z,24.31
2023-08-15T21:33:33.013Z,24.28
2023-08-15T21:36:37.700Z,24.16
2023-08-15T21:39:40.727Z,24.08
2023-08-15T21:42:44.156Z,24.07
2023-08-15T21:45:47.620Z,24.07
2023-08-15T21:48:51.129Z,23.94
2023-08-15T21:51:54.298Z,23.98
2023-08-15T21:54:58.202Z,23.89
2023-08-15T21:58:01.280Z,23.85
2023-08-15T22:01:04.332Z,23.82
2023-08-15T22:04:07.723Z,23.68
2023-08-15T22:07:11.489Z,23.62
2023-08-15T22:10:14.708Z,23.50
2023-08-15T22:13:17.875Z,23.51
2023-08-15T22:19:40.951Z,23.39
2023-08-15T22:22:44.104Z,23.29
2023-08-15T22:25:48.160Z,23.19
2023-08-15T22:28:51.381Z,23.18
2023-08-15T22:31:54.814Z,23.15
2023-08-15T22:34:58.186Z,23.13
2023-08-15T22:38:01.240Z,22.99
2023-08-15T22:41:04.478Z,22.98
2023-08-15T22:44:08.183Z,22.88
2023-08-15T22:47:11.304Z,22.84
2023-08-15T22:50:17.323Z,22.85
2023-08-15T22:53:21.117Z,22.82
2023-08-15T22:56:25.012Z,22.86
2023-08-15T22:59:28.179Z,22.83
2023-08-15T23:02:31.542Z,22.84
2023-08-15T23:05:35.132Z,22.71
2023-08-15T23:08:38.613Z,22.62
2023-08-15T23:11:42.011Z,22.63
2023-08-15T23:14:45.337Z,22.55
2023-08-15T23:17:51.306Z,22.49
2023-08-15T23:20:57.665Z,22.50
2023-08-15T23:24:00.759Z,22.41
2023-08-15T23:27:03.969Z,22.35
2023-08-15T23:30:09.443Z,22.24
2023-08-15T23:33:15.024Z,22.23
2023-08-15T23:36:21.521Z,22.16
2023-08-15T23:39:26.248Z,22.18
2023-08-15T23:42:29.254Z,22.11
2023-08-15T23:45:35.926Z,22.10
2023-08-15T23:48:39.206Z,22.07
2023-08-15T23:51:42.230Z,22.08
2023-08-15T23:54:45.650Z,22.01
2023-08-15T23:57:48.842Z,22.00
